sensor_id;sensor_type;location;lat;lon;timestamp;P1;durP1;ratioP1;P2;durP2;ratioP2
70967;SDS011;58629;48.808;8.820;2023-04-24T00:00:54;1.15;;;0.43;;
70967;SDS011;58629;48.808;8.820;2023-04-24T00:03:23;0.88;;;0.50;;
70967;SDS011;58629;48.808;8.820;2023-04-24T00:05:49;0.63;;;0.35;;
70967;SDS011;58629;48.808;8.820;2023-04-24T00:08:14;0.77;;;0.40;;
70967;SDS011;58629;48.808;8.820;2023-04-24T00:10:40;1.13;;;0.40;;
70967;SDS011;58629;48.808;8.820;2023-04-24T00:13:06;1.33;;;0.30;;
70967;SDS011;58629;48.808;8.820;2023-04-24T00:15:31;1.13;;;0.40;;
70967;SDS011;58629;48.808;8.820;2023-04-24T00:17:57;1.70;;;0.30;;
70967;SDS011;58629;48.808;8.820;2023-04-24T00:20:23;1.25;;;0.40;;
70967;SDS011;58629;48.808;8.820;2023-04-24T00:22:48;0.80;;;0.30;;
70967;SDS011;58629;48.808;8.820;2023-04-24T00:25:14;1.45;;;0.40;;
70967;SDS011;58629;48.808;8.820;2023-04-24T00:27:39;1.00;;;0.43;;
70967;SDS011;58629;48.808;8.820;2023-04-24T00:30:05;0.30;;;0.30;;
70967;SDS011;58629;48.808;8.820;2023-04-24T00:32:31;1.23;;;0.38;;
70967;SDS011;58629;48.808;8.820;2023-04-24T00:34:56;1.07;;;0.43;;
70967;SDS011;58629;48.808;8.820;2023-04-24T00:37:21;0.77;;;0.40;;
70967;SDS011;58629;48.808;8.820;2023-04-24T00:39:47;0.80;;;0.40;;
70967;SDS011;58629;48.808;8.820;2023-04-24T00:42:12;1.33;;;0.40;;
70967;SDS011;58629;48.808;8.820;2023-04-24T00:44:37;0.87;;;0.40;;
70967;SDS011;58629;48.808;8.820;2023-04-24T00:47:03;0.73;;;0.22;;
70967;SDS011;58629;48.808;8.820;2023-04-24T00:49:29;0.83;;;0.40;;
70967;SDS011;58629;48.808;8.820;2023-04-24T00:51:54;1.10;;;0.30;;
70967;SDS011;58629;48.808;8.820;2023-04-24T00:54:19;0.83;;;0.30;;
70967;SDS011;58629;48.808;8.820;2023-04-24T00:56:45;2.33;;;0.30;;
70967;SDS011;58629;48.808;8.820;2023-04-24T00:59:11;0.40;;;0.20;;
70967;SDS011;58629;48.808;8.820;2023-04-24T01:01:37;0.20;;;0.10;;
70967;SDS011;58629;48.808;8.820;2023-04-24T01:04:06;0.50;;;0.20;;
70967;SDS011;58629;48.808;8.820;2023-04-24T01:06:32;0.43;;;0.20;;
70967;SDS011;58629;48.808;8.820;2023-04-24T01:08:58;0.55;;;0.30;;
70967;SDS011;58629;48.808;8.820;2023-04-24T01:11:24;0.35;;;0.30;;
70967;SDS011;58629;48.808;8.820;2023-04-24T01:13:50;1.30;;;0.30;;
70967;SDS011;58629;48.808;8.820;2023-04-24T01:16:15;1.08;;;0.28;;
70967;SDS011;58629;48.808;8.820;2023-04-24T01:18:42;0.98;;;0.35;;
70967;SDS011;58629;48.808;8.820;2023-04-24T01:21:08;0.20;;;0.20;;
70967;SDS011;58629;48.808;8.820;2023-04-24T01:23:33;1.63;;;0.35;;
70967;SDS011;58629;48.808;8.820;2023-04-24T01:25:59;1.08;;;0.28;;
70967;SDS011;58629;48.808;8.820;2023-04-24T01:28:25;0.87;;;0.30;;
70967;SDS011;58629;48.808;8.820;2023-04-24T01:30:51;0.83;;;0.37;;
70967;SDS011;58629;48.808;8.820;2023-04-24T01:33:16;2.03;;;0.40;;
70967;SDS011;58629;48.808;8.820;2023-04-24T01:35:42;0.67;;;0.40;;
70967;SDS011;58629;48.808;8.820;2023-04-24T01:38:07;0.67;;;0.30;;
70967;SDS011;58629;48.808;8.820;2023-04-24T01:40:32;0.67;;;0.27;;
70967;SDS011;58629;48.808;8.820;2023-04-24T01:42:58;0.80;;;0.40;;
70967;SDS011;58629;48.808;8.820;2023-04-24T01:45:24;1.37;;;0.30;;
70967;SDS011;58629;48.808;8.820;2023-04-24T01:47:50;0.82;;;0.20;;
70967;SDS011;58629;48.808;8.820;2023-04-24T01:50:15;2.30;;;0.30;;
70967;SDS011;58629;48.808;8.820;2023-04-24T01:52:41;0.50;;;0.30;;
70967;SDS011;58629;48.808;8.820;2023-04-24T01:55:06;0.30;;;0.20;;
70967;SDS011;58629;48.808;8.820;2023-04-24T01:57:32;1.60;;;0.60;;
70967;SDS011;58629;48.808;8.820;2023-04-24T01:59:58;0.70;;;0.30;;
70967;SDS011;58629;48.808;8.820;2023-04-24T02:02:24;0.83;;;0.40;;
70967;SDS011;58629;48.808;8.820;2023-04-24T02:04:52;1.27;;;0.30;;
70967;SDS011;58629;48.808;8.820;2023-04-24T02:07:17;1.35;;;0.40;;
70967;SDS011;58629;48.808;8.820;2023-04-24T02:09:42;0.50;;;0.30;;
70967;SDS011;58629;48.808;8.820;2023-04-24T02:12:08;2.07;;;0.40;;
70967;SDS011;58629;48.808;8.820;2023-04-24T02:14:33;1.80;;;0.50;;
70967;SDS011;58629;48.808;8.820;2023-04-24T02:16:58;0.83;;;0.40;;
70967;SDS011;58629;48.808;8.820;2023-04-24T02:19:24;1.60;;;0.30;;
70967;SDS011;58629;48.808;8.820;2023-04-24T02:21:49;0.50;;;0.40;;
70967;SDS011;58629;48.808;8.820;2023-04-24T02:24:15;0.88;;;0.35;;
70967;SDS011;58629;48.808;8.820;2023-04-24T02:26:40;1.23;;;0.40;;
70967;SDS011;58629;48.808;8.820;2023-04-24T02:29:06;0.50;;;0.30;;
70967;SDS011;58629;48.808;8.820;2023-04-24T02:31:31;1.37;;;0.50;;
70967;SDS011;58629;48.808;8.820;2023-04-24T02:33:56;0.83;;;0.50;;
70967;SDS011;58629;48.808;8.820;2023-04-24T02:36:22;0.80;;;0.40;;
70967;SDS011;58629;48.808;8.820;2023-04-24T02:38:47;1.20;;;0.30;;
70967;SDS011;58629;48.808;8.820;2023-04-24T02:41:12;1.67;;;0.60;;
70967;SDS011;58629;48.808;8.820;2023-04-24T02:43:38;0.97;;;0.40;;
70967;SDS011;58629;48.808;8.820;2023-04-24T02:46:03;0.50;;;0.30;;
70967;SDS011;58629;48.808;8.820;2023-04-24T02:48:28;0.40;;;0.20;;
70967;SDS011;58629;48.808;8.820;2023-04-24T02:50:54;0.37;;;0.20;;
70967;SDS011;58629;48.808;8.820;2023-04-24T02:53:19;0.37;;;0.20;;
70967;SDS011;58629;48.808;8.820;2023-04-24T02:55:45;0.85;;;0.30;;
70967;SDS011;58629;48.808;8.820;2023-04-24T02:58:11;0.77;;;0.30;;
70967;SDS011;58629;48.808;8.820;2023-04-24T03:00:37;0.30;;;0.30;;
70967;SDS011;58629;48.808;8.820;2023-04-24T03:03:03;0.52;;;0.30;;
70967;SDS011;58629;48.808;8.820;2023-04-24T03:05:28;1.17;;;0.30;;
70967;SDS011;58629;48.808;8.820;2023-04-24T03:07:55;1.35;;;0.30;;
70967;SDS011;58629;48.808;8.820;2023-04-24T03:10:20;0.43;;;0.37;;
70967;SDS011;58629;48.808;8.820;2023-04-24T03:12:47;0.55;;;0.30;;
70967;SDS011;58629;48.808;8.820;2023-04-24T03:15:12;0.75;;;0.38;;
70967;SDS011;58629;48.808;8.820;2023-04-24T03:17:38;0.47;;;0.23;;
70967;SDS011;58629;48.808;8.820;2023-04-24T03:20:03;0.70;;;0.30;;
70967;SDS011;58629;48.808;8.820;2023-04-24T03:22:30;0.70;;;0.30;;
70967;SDS011;58629;48.808;8.820;2023-04-24T03:24:57;0.27;;;0.13;;
70967;SDS011;58629;48.808;8.820;2023-04-24T03:27:23;0.73;;;0.20;;
70967;SDS011;58629;48.808;8.820;2023-04-24T03:29:48;0.20;;;0.20;;
70967;SDS011;58629;48.808;8.820;2023-04-24T03:32:16;0.28;;;0.20;;
70967;SDS011;58629;48.808;8.820;2023-04-24T03:34:41;0.33;;;0.30;;
70967;SDS011;58629;48.808;8.820;2023-04-24T03:37:07;0.33;;;0.30;;
70967;SDS011;58629;48.808;8.820;2023-04-24T03:39:32;1.83;;;0.50;;
70967;SDS011;58629;48.808;8.820;2023-04-24T03:41:57;0.60;;;0.40;;
70967;SDS011;58629;48.808;8.820;2023-04-24T03:44:22;0.87;;;0.53;;
70967;SDS011;58629;48.808;8.820;2023-04-24T03:46:48;0.60;;;0.40;;
70967;SDS011;58629;48.808;8.820;2023-04-24T03:49:13;0.80;;;0.40;;
70967;SDS011;58629;48.808;8.820;2023-04-24T03:51:38;1.07;;;0.47;;
70967;SDS011;58629;48.808;8.820;2023-04-24T03:54:04;1.55;;;0.47;;
70967;SDS011;58629;48.808;8.820;2023-04-24T03:56:29;0.73;;;0.50;;
70967;SDS011;58629;48.808;8.820;2023-04-24T03:58:55;0.87;;;0.60;;
70967;SDS011;58629;48.808;8.820;2023-04-24T04:01:20;1.50;;;0.70;;
70967;SDS011;58629;48.808;8.820;2023-04-24T04:03:45;0.60;;;0.50;;
70967;SDS011;58629;48.808;8.820;2023-04-24T04:06:11;0.70;;;0.50;;
70967;SDS011;58629;48.808;8.820;2023-04-24T04:08:38;1.02;;;0.60;;
70967;SDS011;58629;48.808;8.820;2023-04-24T04:11:03;2.07;;;0.70;;
70967;SDS011;58629;48.808;8.820;2023-04-24T04:13:28;1.00;;;0.50;;
70967;SDS011;58629;48.808;8.820;2023-04-24T04:15:53;1.57;;;0.70;;
70967;SDS011;58629;48.808;8.820;2023-04-24T04:18:19;0.77;;;0.70;;
70967;SDS011;58629;48.808;8.820;2023-04-24T04:20:45;0.77;;;0.50;;
70967;SDS011;58629;48.808;8.820;2023-04-24T04:23:10;1.90;;;0.60;;
70967;SDS011;58629;48.808;8.820;2023-04-24T04:25:35;1.03;;;0.50;;
70967;SDS011;58629;48.808;8.820;2023-04-24T04:28:01;0.70;;;0.50;;
70967;SDS011;58629;48.808;8.820;2023-04-24T04:30:27;0.68;;;0.50;;
70967;SDS011;58629;48.808;8.820;2023-04-24T04:32:54;1.05;;;0.50;;
70967;SDS011;58629;48.808;8.820;2023-04-24T04:35:20;0.70;;;0.50;;
70967;SDS011;58629;48.808;8.820;2023-04-24T04:37:45;1.07;;;0.50;;
70967;SDS011;58629;48.808;8.820;2023-04-24T04:40:10;1.58;;;0.40;;
70967;SDS011;58629;48.808;8.820;2023-04-24T04:42:36;1.17;;;0.50;;
70967;SDS011;58629;48.808;8.820;2023-04-24T04:45:05;0.70;;;0.45;;
70967;SDS011;58629;48.808;8.820;2023-04-24T04:47:33;1.27;;;0.70;;
70967;SDS011;58629;48.808;8.820;2023-04-24T04:49:59;1.55;;;0.60;;
70967;SDS011;58629;48.808;8.820;2023-04-24T04:52:25;1.63;;;0.70;;
70967;SDS011;58629;48.808;8.820;2023-04-24T04:54:51;0.60;;;0.60;;
70967;SDS011;58629;48.808;8.820;2023-04-24T04:57:16;1.47;;;0.80;;
70967;SDS011;58629;48.808;8.820;2023-04-24T04:59:42;1.40;;;0.90;;
70967;SDS011;58629;48.808;8.820;2023-04-24T05:02:07;1.00;;;0.70;;
70967;SDS011;58629;48.808;8.820;2023-04-24T05:04:33;1.00;;;0.60;;
70967;SDS011;58629;48.808;8.820;2023-04-24T05:06:58;1.40;;;0.63;;
70967;SDS011;58629;48.808;8.820;2023-04-24T05:09:23;2.40;;;0.80;;
70967;SDS011;58629;48.808;8.820;2023-04-24T05:11:52;1.15;;;0.80;;
70967;SDS011;58629;48.808;8.820;2023-04-24T05:14:17;1.40;;;0.83;;
70967;SDS011;58629;48.808;8.820;2023-04-24T05:16:43;0.70;;;0.50;;
70967;SDS011;58629;48.808;8.820;2023-04-24T05:19:09;1.10;;;0.73;;
70967;SDS011;58629;48.808;8.820;2023-04-24T05:21:36;2.38;;;0.80;;
70967;SDS011;58629;48.808;8.820;2023-04-24T05:24:02;1.47;;;0.70;;
70967;SDS011;58629;48.808;8.820;2023-04-24T05:26:27;0.73;;;0.60;;
70967;SDS011;58629;48.808;8.820;2023-04-24T05:28:53;1.10;;;0.90;;
70967;SDS011;58629;48.808;8.820;2023-04-24T05:31:18;1.63;;;1.50;;
70967;SDS011;58629;48.808;8.820;2023-04-24T05:33:43;2.23;;;1.33;;
70967;SDS011;58629;48.808;8.820;2023-04-24T05:36:08;1.63;;;1.13;;
70967;SDS011;58629;48.808;8.820;2023-04-24T05:38:34;1.60;;;1.30;;
70967;SDS011;58629;48.808;8.820;2023-04-24T05:41:00;1.80;;;1.20;;
70967;SDS011;58629;48.808;8.820;2023-04-24T05:43:25;1.33;;;0.90;;
70967;SDS011;58629;48.808;8.820;2023-04-24T05:45:51;1.57;;;1.37;;
70967;SDS011;58629;48.808;8.820;2023-04-24T05:48:18;2.10;;;1.20;;
70967;SDS011;58629;48.808;8.820;2023-04-24T05:50:43;1.45;;;1.00;;
70967;SDS011;58629;48.808;8.820;2023-04-24T05:53:09;2.00;;;1.23;;
70967;SDS011;58629;48.808;8.820;2023-04-24T05:55:35;1.90;;;1.10;;
70967;SDS011;58629;48.808;8.820;2023-04-24T05:58:01;1.43;;;1.00;;
70967;SDS011;58629;48.808;8.820;2023-04-24T06:00:26;1.70;;;1.10;;
70967;SDS011;58629;48.808;8.820;2023-04-24T06:02:52;2.00;;;1.77;;
70967;SDS011;58629;48.808;8.820;2023-04-24T06:05:17;2.37;;;1.40;;
70967;SDS011;58629;48.808;8.820;2023-04-24T06:07:43;2.83;;;1.98;;
70967;SDS011;58629;48.808;8.820;2023-04-24T06:10:08;1.55;;;1.20;;
70967;SDS011;58629;48.808;8.820;2023-04-24T06:12:34;2.33;;;1.20;;
70967;SDS011;58629;48.808;8.820;2023-04-24T06:15:00;2.13;;;1.10;;
70967;SDS011;58629;48.808;8.820;2023-04-24T06:17:25;2.00;;;1.40;;
70967;SDS011;58629;48.808;8.820;2023-04-24T06:19:51;3.07;;;1.60;;
70967;SDS011;58629;48.808;8.820;2023-04-24T06:22:16;1.97;;;1.30;;
70967;SDS011;58629;48.808;8.820;2023-04-24T06:24:41;1.50;;;1.27;;
70967;SDS011;58629;48.808;8.820;2023-04-24T06:27:06;2.20;;;1.23;;
70967;SDS011;58629;48.808;8.820;2023-04-24T06:29:32;2.88;;;1.70;;
70967;SDS011;58629;48.808;8.820;2023-04-24T06:31:58;2.47;;;1.42;;
70967;SDS011;58629;48.808;8.820;2023-04-24T06:34:23;2.33;;;1.40;;
70967;SDS011;58629;48.808;8.820;2023-04-24T06:36:49;2.40;;;1.73;;
70967;SDS011;58629;48.808;8.820;2023-04-24T06:39:17;3.35;;;1.50;;
70967;SDS011;58629;48.808;8.820;2023-04-24T06:41:42;2.17;;;1.57;;
70967;SDS011;58629;48.808;8.820;2023-04-24T06:44:07;2.20;;;1.37;;
70967;SDS011;58629;48.808;8.820;2023-04-24T06:46:32;2.10;;;1.37;;
70967;SDS011;58629;48.808;8.820;2023-04-24T06:48:58;2.70;;;1.40;;
70967;SDS011;58629;48.808;8.820;2023-04-24T06:51:23;2.10;;;1.50;;
70967;SDS011;58629;48.808;8.820;2023-04-24T06:53:51;2.83;;;1.55;;
70967;SDS011;58629;48.808;8.820;2023-04-24T06:56:16;1.75;;;1.38;;
70967;SDS011;58629;48.808;8.820;2023-04-24T06:58:42;1.57;;;1.23;;
70967;SDS011;58629;48.808;8.820;2023-04-24T07:01:07;2.73;;;1.40;;
70967;SDS011;58629;48.808;8.820;2023-04-24T07:03:32;1.80;;;1.40;;
70967;SDS011;58629;48.808;8.820;2023-04-24T07:05:57;3.13;;;1.23;;
70967;SDS011;58629;48.808;8.820;2023-04-24T07:08:23;2.60;;;1.33;;
70967;SDS011;58629;48.808;8.820;2023-04-24T07:10:49;2.72;;;1.40;;
70967;SDS011;58629;48.808;8.820;2023-04-24T07:13:16;3.00;;;1.27;;
70967;SDS011;58629;48.808;8.820;2023-04-24T07:15:42;2.38;;;1.30;;
70967;SDS011;58629;48.808;8.820;2023-04-24T07:18:07;3.93;;;1.30;;
70967;SDS011;58629;48.808;8.820;2023-04-24T07:20:32;1.98;;;1.27;;
70967;SDS011;58629;48.808;8.820;2023-04-24T07:22:58;1.53;;;1.10;;
70967;SDS011;58629;48.808;8.820;2023-04-24T07:25:23;1.53;;;1.10;;
70967;SDS011;58629;48.808;8.820;2023-04-24T07:27:48;2.30;;;1.20;;
70967;SDS011;58629;48.808;8.820;2023-04-24T07:30:14;2.37;;;1.20;;
70967;SDS011;58629;48.808;8.820;2023-04-24T07:32:39;3.00;;;1.20;;
70967;SDS011;58629;48.808;8.820;2023-04-24T07:35:04;1.77;;;1.10;;
70967;SDS011;58629;48.808;8.820;2023-04-24T07:37:30;2.70;;;1.10;;
70967;SDS011;58629;48.808;8.820;2023-04-24T07:39:56;2.67;;;1.17;;
70967;SDS011;58629;48.808;8.820;2023-04-24T07:42:21;1.63;;;1.00;;
70967;SDS011;58629;48.808;8.820;2023-04-24T07:44:47;2.70;;;1.10;;
70967;SDS011;58629;48.808;8.820;2023-04-24T07:47:12;4.30;;;1.10;;
70967;SDS011;58629;48.808;8.820;2023-04-24T07:49:41;1.40;;;1.00;;
70967;SDS011;58629;48.808;8.820;2023-04-24T07:52:07;1.92;;;1.30;;
70967;SDS011;58629;48.808;8.820;2023-04-24T07:54:32;3.17;;;1.30;;
70967;SDS011;58629;48.808;8.820;2023-04-24T07:56:58;2.60;;;1.27;;
70967;SDS011;58629;48.808;8.820;2023-04-24T07:59:23;2.27;;;1.40;;
70967;SDS011;58629;48.808;8.820;2023-04-24T08:01:48;2.83;;;1.20;;
70967;SDS011;58629;48.808;8.820;2023-04-24T08:04:14;1.80;;;1.27;;
70967;SDS011;58629;48.808;8.820;2023-04-24T08:06:39;2.83;;;1.50;;
70967;SDS011;58629;48.808;8.820;2023-04-24T08:09:04;1.77;;;1.20;;
70967;SDS011;58629;48.808;8.820;2023-04-24T08:11:30;1.70;;;1.23;;
70967;SDS011;58629;48.808;8.820;2023-04-24T08:13:55;2.67;;;1.27;;
70967;SDS011;58629;48.808;8.820;2023-04-24T08:16:20;2.50;;;1.30;;
70967;SDS011;58629;48.808;8.820;2023-04-24T08:18:46;1.87;;;1.20;;
70967;SDS011;58629;48.808;8.820;2023-04-24T08:21:11;1.97;;;1.13;;
70967;SDS011;58629;48.808;8.820;2023-04-24T08:23:41;2.33;;;1.20;;
70967;SDS011;58629;48.808;8.820;2023-04-24T08:26:07;3.60;;;1.10;;
70967;SDS011;58629;48.808;8.820;2023-04-24T08:28:32;1.87;;;1.20;;
70967;SDS011;58629;48.808;8.820;2023-04-24T08:30:57;2.50;;;1.30;;
70967;SDS011;58629;48.808;8.820;2023-04-24T08:33:23;2.30;;;1.10;;
70967;SDS011;58629;48.808;8.820;2023-04-24T08:35:48;2.22;;;1.20;;
70967;SDS011;58629;48.808;8.820;2023-04-24T08:38:15;1.93;;;1.00;;
70967;SDS011;58629;48.808;8.820;2023-04-24T08:40:41;2.05;;;1.08;;
70967;SDS011;58629;48.808;8.820;2023-04-24T08:43:06;1.70;;;1.20;;
70967;SDS011;58629;48.808;8.820;2023-04-24T08:45:32;2.70;;;1.10;;
70967;SDS011;58629;48.808;8.820;2023-04-24T08:47:58;1.60;;;1.10;;
70967;SDS011;58629;48.808;8.820;2023-04-24T08:50:24;1.88;;;1.20;;
70967;SDS011;58629;48.808;8.820;2023-04-24T08:52:50;2.15;;;1.10;;
70967;SDS011;58629;48.808;8.820;2023-04-24T08:55:18;3.80;;;1.25;;
70967;SDS011;58629;48.808;8.820;2023-04-24T08:57:45;1.92;;;0.90;;
70967;SDS011;58629;48.808;8.820;2023-04-24T09:00:11;2.20;;;1.17;;
70967;SDS011;58629;48.808;8.820;2023-04-24T09:02:39;1.70;;;0.93;;
70967;SDS011;58629;48.808;8.820;2023-04-24T09:05:07;1.77;;;0.98;;
70967;SDS011;58629;48.808;8.820;2023-04-24T09:07:34;1.77;;;0.90;;
70967;SDS011;58629;48.808;8.820;2023-04-24T09:10:01;1.05;;;0.95;;
70967;SDS011;58629;48.808;8.820;2023-04-24T09:12:27;1.93;;;0.87;;
70967;SDS011;58629;48.808;8.820;2023-04-24T09:14:53;1.90;;;1.17;;
70967;SDS011;58629;48.808;8.820;2023-04-24T09:17:20;2.08;;;1.00;;
70967;SDS011;58629;48.808;8.820;2023-04-24T09:19:47;1.93;;;1.10;;
70967;SDS011;58629;48.808;8.820;2023-04-24T09:22:13;1.83;;;1.05;;
70967;SDS011;58629;48.808;8.820;2023-04-24T09:24:39;1.58;;;1.20;;
70967;SDS011;58629;48.808;8.820;2023-04-24T09:27:05;1.97;;;1.20;;
70967;SDS011;58629;48.808;8.820;2023-04-24T09:29:31;1.15;;;1.05;;
70967;SDS011;58629;48.808;8.820;2023-04-24T09:31:57;1.67;;;1.10;;
70967;SDS011;58629;48.808;8.820;2023-04-24T09:34:24;1.73;;;1.13;;
70967;SDS011;58629;48.808;8.820;2023-04-24T09:36:51;2.70;;;1.13;;
70967;SDS011;58629;48.808;8.820;2023-04-24T09:39:17;1.48;;;1.10;;
70967;SDS011;58629;48.808;8.820;2023-04-24T09:41:51;1.55;;;1.30;;
70967;SDS011;58629;48.808;8.820;2023-04-24T09:44:19;2.00;;;1.27;;
70967;SDS011;58629;48.808;8.820;2023-04-24T09:46:58;1.35;;;1.00;;
70967;SDS011;58629;48.808;8.820;2023-04-24T09:49:28;1.70;;;1.10;;
70967;SDS011;58629;48.808;8.820;2023-04-24T09:54:33;3.15;;;1.10;;
70967;SDS011;58629;48.808;8.820;2023-04-24T09:56:58;1.25;;;1.00;;
70967;SDS011;58629;48.808;8.820;2023-04-24T09:59:25;3.10;;;1.20;;
70967;SDS011;58629;48.808;8.820;2023-04-24T10:01:50;1.75;;;1.20;;
70967;SDS011;58629;48.808;8.820;2023-04-24T10:04:23;1.40;;;1.00;;
70967;SDS011;58629;48.808;8.820;2023-04-24T10:06:51;1.95;;;1.15;;
70967;SDS011;58629;48.808;8.820;2023-04-24T10:09:18;1.55;;;1.10;;
70967;SDS011;58629;48.808;8.820;2023-04-24T10:11:45;2.00;;;1.10;;
70967;SDS011;58629;48.808;8.820;2023-04-24T10:14:12;2.22;;;1.02;;
70967;SDS011;58629;48.808;8.820;2023-04-24T10:16:39;2.17;;;1.03;;
70967;SDS011;58629;48.808;8.820;2023-04-24T10:19:05;1.33;;;1.08;;
70967;SDS011;58629;48.808;8.820;2023-04-24T10:21:31;1.30;;;1.10;;
70967;SDS011;58629;48.808;8.820;2023-04-24T10:23:57;1.80;;;1.00;;
70967;SDS011;58629;48.808;8.820;2023-04-24T10:26:24;1.58;;;1.00;;
70967;SDS011;58629;48.808;8.820;2023-04-24T10:28:51;2.03;;;1.00;;
70967;SDS011;58629;48.808;8.820;2023-04-24T10:31:19;1.30;;;0.90;;
70967;SDS011;58629;48.808;8.820;2023-04-24T10:33:45;1.52;;;1.00;;
70967;SDS011;58629;48.808;8.820;2023-04-24T10:36:11;1.15;;;0.80;;
70967;SDS011;58629;48.808;8.820;2023-04-24T10:38:39;1.45;;;1.00;;
70967;SDS011;58629;48.808;8.820;2023-04-24T10:41:10;2.13;;;0.90;;
70967;SDS011;58629;48.808;8.820;2023-04-24T10:43:41;1.98;;;1.10;;
70967;SDS011;58629;48.808;8.820;2023-04-24T10:46:07;1.67;;;1.10;;
70967;SDS011;58629;48.808;8.820;2023-04-24T10:48:35;2.03;;;1.05;;
70967;SDS011;58629;48.808;8.820;2023-04-24T10:51:10;1.70;;;1.17;;
70967;SDS011;58629;48.808;8.820;2023-04-24T10:53:36;2.97;;;1.50;;
70967;SDS011;58629;48.808;8.820;2023-04-24T10:56:06;1.17;;;1.00;;
70967;SDS011;58629;48.808;8.820;2023-04-24T10:58:41;1.88;;;1.20;;
70967;SDS011;58629;48.808;8.820;2023-04-24T11:01:24;2.13;;;1.20;;
70967;SDS011;58629;48.808;8.820;2023-04-24T11:03:55;1.50;;;1.10;;
70967;SDS011;58629;48.808;8.820;2023-04-24T11:06:35;1.30;;;1.10;;
70967;SDS011;58629;48.808;8.820;2023-04-24T11:09:05;1.13;;;0.90;;
70967;SDS011;58629;48.808;8.820;2023-04-24T11:11:32;3.22;;;1.00;;
70967;SDS011;58629;48.808;8.820;2023-04-24T11:16:31;1.63;;;0.97;;
70967;SDS011;58629;48.808;8.820;2023-04-24T11:26:58;1.50;;;1.10;;
70967;SDS011;58629;48.808;8.820;2023-04-24T11:35:15;1.75;;;1.02;;
70967;SDS011;58629;48.808;8.820;2023-04-24T11:37:52;2.28;;;1.45;;
70967;SDS011;58629;48.808;8.820;2023-04-24T11:40:19;2.10;;;1.30;;
70967;SDS011;58629;48.808;8.820;2023-04-24T11:42:47;2.25;;;1.30;;
70967;SDS011;58629;48.808;8.820;2023-04-24T11:45:15;4.05;;;3.65;;
70967;SDS011;58629;48.808;8.820;2023-04-24T11:47:43;1.38;;;1.20;;
70967;SDS011;58629;48.808;8.820;2023-04-24T11:50:13;2.40;;;1.30;;
70967;SDS011;58629;48.808;8.820;2023-04-24T11:52:43;2.20;;;1.23;;
70967;SDS011;58629;48.808;8.820;2023-04-24T11:57:49;1.58;;;1.30;;
70967;SDS011;58629;48.808;8.820;2023-04-24T12:00:15;1.40;;;1.00;;
70967;SDS011;58629;48.808;8.820;2023-04-24T12:02:43;1.77;;;1.10;;
70967;SDS011;58629;48.808;8.820;2023-04-24T12:05:08;1.80;;;1.30;;
70967;SDS011;58629;48.808;8.820;2023-04-24T12:07:41;1.70;;;1.10;;
70967;SDS011;58629;48.808;8.820;2023-04-24T12:10:10;1.98;;;1.30;;
70967;SDS011;58629;48.808;8.820;2023-04-24T12:12:35;2.93;;;1.80;;
70967;SDS011;58629;48.808;8.820;2023-04-24T12:15:01;2.20;;;1.55;;
70967;SDS011;58629;48.808;8.820;2023-04-24T12:17:32;1.80;;;1.30;;
70967;SDS011;58629;48.808;8.820;2023-04-24T12:19:59;1.38;;;1.08;;
70967;SDS011;58629;48.808;8.820;2023-04-24T12:22:26;2.13;;;1.20;;
70967;SDS011;58629;48.808;8.820;2023-04-24T12:24:58;1.20;;;1.00;;
70967;SDS011;58629;48.808;8.820;2023-04-24T12:27:25;1.77;;;1.10;;
70967;SDS011;58629;48.808;8.820;2023-04-24T12:29:51;1.37;;;0.93;;
70967;SDS011;58629;48.808;8.820;2023-04-24T12:32:17;1.70;;;1.13;;
70967;SDS011;58629;48.808;8.820;2023-04-24T12:34:43;2.10;;;1.07;;
70967;SDS011;58629;48.808;8.820;2023-04-24T12:37:11;1.45;;;1.02;;
70967;SDS011;58629;48.808;8.820;2023-04-24T12:39:37;1.25;;;1.05;;
70967;SDS011;58629;48.808;8.820;2023-04-24T12:42:02;1.47;;;1.10;;
70967;SDS011;58629;48.808;8.820;2023-04-24T12:46:56;1.70;;;1.10;;
70967;SDS011;58629;48.808;8.820;2023-04-24T12:49:22;2.17;;;1.40;;
70967;SDS011;58629;48.808;8.820;2023-04-24T12:51:47;2.00;;;1.37;;
70967;SDS011;58629;48.808;8.820;2023-04-24T12:54:12;3.10;;;1.80;;
70967;SDS011;58629;48.808;8.820;2023-04-24T12:56:38;2.67;;;1.60;;
70967;SDS011;58629;48.808;8.820;2023-04-24T12:59:04;2.08;;;1.60;;
70967;SDS011;58629;48.808;8.820;2023-04-24T13:01:30;2.05;;;1.52;;
70967;SDS011;58629;48.808;8.820;2023-04-24T13:03:55;2.20;;;1.50;;
70967;SDS011;58629;48.808;8.820;2023-04-24T13:06:20;2.07;;;1.40;;
70967;SDS011;58629;48.808;8.820;2023-04-24T13:08:46;2.60;;;1.60;;
70967;SDS011;58629;48.808;8.820;2023-04-24T13:11:12;2.70;;;1.75;;
70967;SDS011;58629;48.808;8.820;2023-04-24T13:13:38;2.80;;;1.90;;
70967;SDS011;58629;48.808;8.820;2023-04-24T13:16:03;2.13;;;1.60;;
70967;SDS011;58629;48.808;8.820;2023-04-24T13:18:29;2.25;;;1.30;;
70967;SDS011;58629;48.808;8.820;2023-04-24T13:20:54;2.53;;;1.30;;
70967;SDS011;58629;48.808;8.820;2023-04-24T13:23:20;1.67;;;1.30;;
70967;SDS011;58629;48.808;8.820;2023-04-24T13:25:46;1.60;;;1.40;;
70967;SDS011;58629;48.808;8.820;2023-04-24T13:28:12;1.27;;;1.05;;
70967;SDS011;58629;48.808;8.820;2023-04-24T13:30:37;1.50;;;1.40;;
70967;SDS011;58629;48.808;8.820;2023-04-24T13:33:03;2.97;;;1.50;;
70967;SDS011;58629;48.808;8.820;2023-04-24T13:35:28;3.30;;;1.70;;
70967;SDS011;58629;48.808;8.820;2023-04-24T13:37:54;1.50;;;1.30;;
70967;SDS011;58629;48.808;8.820;2023-04-24T13:40:19;2.13;;;1.60;;
70967;SDS011;58629;48.808;8.820;2023-04-24T13:42:44;1.87;;;1.40;;
70967;SDS011;58629;48.808;8.820;2023-04-24T13:45:10;1.52;;;1.20;;
70967;SDS011;58629;48.808;8.820;2023-04-24T13:47:35;1.50;;;1.40;;
70967;SDS011;58629;48.808;8.820;2023-04-24T13:50:01;1.87;;;1.37;;
70967;SDS011;58629;48.808;8.820;2023-04-24T13:52:26;1.90;;;1.20;;
70967;SDS011;58629;48.808;8.820;2023-04-24T13:54:51;1.73;;;1.40;;
70967;SDS011;58629;48.808;8.820;2023-04-24T13:57:17;2.47;;;1.60;;
70967;SDS011;58629;48.808;8.820;2023-04-24T13:59:42;3.17;;;2.20;;
70967;SDS011;58629;48.808;8.820;2023-04-24T14:02:08;2.23;;;1.67;;
70967;SDS011;58629;48.808;8.820;2023-04-24T14:04:33;1.90;;;1.70;;
70967;SDS011;58629;48.808;8.820;2023-04-24T14:06:58;2.23;;;1.50;;
70967;SDS011;58629;48.808;8.820;2023-04-24T14:09:24;2.13;;;1.58;;
70967;SDS011;58629;48.808;8.820;2023-04-24T14:11:49;2.00;;;1.50;;
70967;SDS011;58629;48.808;8.820;2023-04-24T14:14:16;2.65;;;1.80;;
70967;SDS011;58629;48.808;8.820;2023-04-24T14:16:41;2.43;;;1.70;;
70967;SDS011;58629;48.808;8.820;2023-04-24T14:19:06;3.23;;;1.80;;
70967;SDS011;58629;48.808;8.820;2023-04-24T14:21:32;3.20;;;1.60;;
70967;SDS011;58629;48.808;8.820;2023-04-24T14:23:57;3.08;;;2.00;;
70967;SDS011;58629;48.808;8.820;2023-04-24T14:26:23;2.30;;;1.60;;
70967;SDS011;58629;48.808;8.820;2023-04-24T14:28:49;3.03;;;2.00;;
70967;SDS011;58629;48.808;8.820;2023-04-24T14:31:15;2.22;;;1.50;;
70967;SDS011;58629;48.808;8.820;2023-04-24T14:33:40;1.97;;;1.37;;
70967;SDS011;58629;48.808;8.820;2023-04-24T14:36:06;2.50;;;1.70;;
70967;SDS011;58629;48.808;8.820;2023-04-24T14:38:31;2.25;;;1.52;;
70967;SDS011;58629;48.808;8.820;2023-04-24T14:40:56;2.20;;;1.50;;
70967;SDS011;58629;48.808;8.820;2023-04-24T14:43:22;2.43;;;1.50;;
70967;SDS011;58629;48.808;8.820;2023-04-24T14:45:47;1.67;;;1.47;;
70967;SDS011;58629;48.808;8.820;2023-04-24T14:48:13;3.10;;;1.63;;
70967;SDS011;58629;48.808;8.820;2023-04-24T14:50:38;3.13;;;1.90;;
70967;SDS011;58629;48.808;8.820;2023-04-24T14:53:03;1.80;;;1.50;;
70967;SDS011;58629;48.808;8.820;2023-04-24T14:55:29;2.83;;;1.80;;
70967;SDS011;58629;48.808;8.820;2023-04-24T14:57:55;2.35;;;1.60;;
70967;SDS011;58629;48.808;8.820;2023-04-24T15:00:21;2.07;;;1.57;;
70967;SDS011;58629;48.808;8.820;2023-04-24T15:02:48;2.10;;;1.50;;
70967;SDS011;58629;48.808;8.820;2023-04-24T15:05:13;2.57;;;1.40;;